createdAt,value
2023-12-18T00:00:29.369Z,6.18
2023-12-18T00:02:56.907Z,4.18
2023-12-18T00:05:25.778Z,6.82
2023-12-18T00:07:53.325Z,4.75
2023-12-18T00:10:20.806Z,4.50
2023-12-18T00:12:48.377Z,4.82
2023-12-18T00:15:16.042Z,4.18
2023-12-18T00:17:43.822Z,3.90
2023-12-18T00:20:12.709Z,3.00
2023-12-18T00:22:41.569Z,4.38
2023-12-18T00:25:09.825Z,4.13
2023-12-18T00:27:37.461Z,3.92
2023-12-18T00:30:05.875Z,4.55
2023-12-18T00:32:33.522Z,5.10
2023-12-18T00:35:01.068Z,4.13
2023-12-18T00:37:28.587Z,3.17
2023-12-18T00:39:57.590Z,4.10
2023-12-18T00:42:25.267Z,4.90
2023-12-18T00:44:52.832Z,3.20
2023-12-18T00:47:20.353Z,3.72
2023-12-18T00:49:48.032Z,2.95
2023-12-18T00:52:16.130Z,3.15
2023-12-18T00:54:43.785Z,3.20
2023-12-18T00:57:12.685Z,2.92
2023-12-18T00:59:40.166Z,3.45
2023-12-18T01:02:07.673Z,2.22
2023-12-18T01:04:35.268Z,3.78
2023-12-18T01:07:02.852Z,3.00
2023-12-18T01:09:30.435Z,3.15
2023-12-18T01:11:58.006Z,2.72
2023-12-18T01:14:26.825Z,3.13
2023-12-18T01:16:55.613Z,2.35
2023-12-18T01:19:23.248Z,3.35
2023-12-18T01:21:50.997Z,2.55
2023-12-18T01:24:19.035Z,1.73
2023-12-18T01:26:46.643Z,2.42
2023-12-18T01:29:14.235Z,2.63
2023-12-18T01:31:43.104Z,1.75
2023-12-18T01:34:10.748Z,2.92
2023-12-18T01:36:38.427Z,1.50
2023-12-18T01:39:06.055Z,2.72
2023-12-18T01:41:33.603Z,1.10
2023-12-18T01:44:01.218Z,2.00
2023-12-18T01:46:28.759Z,2.63
2023-12-18T01:48:57.807Z,1.83
2023-12-18T01:51:25.423Z,2.53
2023-12-18T01:53:54.630Z,3.40
2023-12-18T01:56:23.381Z,1.63
2023-12-18T01:58:50.912Z,2.25
2023-12-18T02:01:18.512Z,2.28
2023-12-18T02:03:46.148Z,2.78
2023-12-18T02:06:16.614Z,2.33
2023-12-18T02:08:44.112Z,2.10
2023-12-18T02:11:11.630Z,3.33
2023-12-18T02:13:40.913Z,1.83
2023-12-18T02:16:07.556Z,2.08
2023-12-18T02:18:35.224Z,2.90
2023-12-18T02:21:03.100Z,2.00
2023-12-18T02:23:31.950Z,2.05
2023-12-18T02:25:59.469Z,1.27
2023-12-18T02:28:27.090Z,1.98
2023-12-18T02:30:54.730Z,2.25
2023-12-18T02:33:22.430Z,1.95
2023-12-18T02:35:50.100Z,1.52
2023-12-18T02:38:17.648Z,2.45
2023-12-18T02:40:46.578Z,1.48
2023-12-18T02:43:14.091Z,2.20
2023-12-18T02:45:41.648Z,1.38
2023-12-18T02:48:09.575Z,1.67
2023-12-18T02:50:37.208Z,2.22
2023-12-18T02:53:04.933Z,1.92
2023-12-18T02:55:32.436Z,2.80
2023-12-18T02:58:01.767Z,2.92
2023-12-18T03:00:29.311Z,3.63
2023-12-18T03:02:56.860Z,3.72
2023-12-18T03:05:24.394Z,5.00
2023-12-18T03:07:51.999Z,5.80
2023-12-18T03:10:19.504Z,5.88
2023-12-18T03:12:47.272Z,5.78
2023-12-18T03:15:16.394Z,5.82
2023-12-18T03:17:44.299Z,4.72
2023-12-18T03:20:12.803Z,4.13
2023-12-18T03:22:40.327Z,4.28
2023-12-18T03:25:08.505Z,4.80
2023-12-18T03:27:36.033Z,3.65
2023-12-18T03:30:03.912Z,3.65
2023-12-18T03:32:32.962Z,4.47
2023-12-18T03:37:27.869Z,3.55
2023-12-18T03:39:55.394Z,3.92
2023-12-18T03:42:23.222Z,3.55
2023-12-18T03:44:50.782Z,4.97
2023-12-18T03:47:18.311Z,4.18
2023-12-18T03:49:47.201Z,3.20
2023-12-18T03:52:14.729Z,3.88
2023-12-18T03:54:42.399Z,3.05
2023-12-18T03:57:09.993Z,3.38
2023-12-18T03:59:37.547Z,2.55
2023-12-18T04:02:05.434Z,2.45
2023-12-18T04:04:32.982Z,3.30
2023-12-18T04:07:01.898Z,2.50
2023-12-18T04:09:29.436Z,1.75
2023-12-18T04:11:56.968Z,2.22
2023-12-18T04:14:24.463Z,3.25
2023-12-18T04:16:51.977Z,2.22
2023-12-18T04:19:19.583Z,2.67
2023-12-18T04:21:47.233Z,2.00
2023-12-18T04:24:17.735Z,2.67
2023-12-18T04:26:46.529Z,3.25
2023-12-18T04:29:14.082Z,3.38
2023-12-18T04:31:41.696Z,3.28
2023-12-18T04:34:09.465Z,2.10
2023-12-18T04:36:39.353Z,3.33
2023-12-18T04:39:06.977Z,3.22
2023-12-18T04:41:35.878Z,3.42
2023-12-18T04:44:03.427Z,2.53
2023-12-18T04:46:35.868Z,3.15
2023-12-18T04:49:03.626Z,3.08
2023-12-18T04:51:31.276Z,3.13
2023-12-18T04:53:58.872Z,4.13
2023-12-18T04:56:26.372Z,3.00
2023-12-18T04:58:55.369Z,3.28
2023-12-18T05:03:50.297Z,3.10
2023-12-18T05:06:21.663Z,2.60
2023-12-18T05:08:49.693Z,2.85
2023-12-18T05:11:18.277Z,3.03
2023-12-18T05:13:45.815Z,3.15
2023-12-18T05:16:14.735Z,4.18
2023-12-18T05:18:42.400Z,2.65
2023-12-18T05:21:10.029Z,2.40
2023-12-18T05:23:37.576Z,2.75
2023-12-18T05:26:05.413Z,3.80
2023-12-18T05:28:33.037Z,2.80
2023-12-18T05:31:00.744Z,3.45
2023-12-18T05:33:29.915Z,3.60
2023-12-18T05:35:57.556Z,1.85
2023-12-18T05:38:25.039Z,2.67
2023-12-18T05:40:52.558Z,2.22
2023-12-18T05:43:21.625Z,2.72
2023-12-18T05:45:49.177Z,2.80
2023-12-18T05:48:16.835Z,3.97
2023-12-18T05:50:45.783Z,2.20
2023-12-18T05:53:13.292Z,3.38
2023-12-18T05:55:40.925Z,3.08
2023-12-18T05:58:08.434Z,3.20
2023-12-18T06:00:37.162Z,3.58
2023-12-18T06:03:05.073Z,3.90
2023-12-18T06:05:32.743Z,2.53
2023-12-18T06:08:01.627Z,3.83
2023-12-18T06:10:29.174Z,4.20
2023-12-18T06:12:56.823Z,3.50
2023-12-18T06:15:24.319Z,3.00
2023-12-18T06:17:51.963Z,3.50
2023-12-18T06:20:19.543Z,3.60
2023-12-18T06:22:47.052Z,2.22
2023-12-18T06:25:16.017Z,3.42
2023-12-18T06:30:13.082Z,2.80
2023-12-18T06:32:40.887Z,2.70
2023-12-18T06:35:09.275Z,4.05
2023-12-18T06:37:36.774Z,3.63
2023-12-18T06:40:05.112Z,3.33
2023-12-18T06:42:33.978Z,3.10
2023-12-18T06:45:01.492Z,4.13
2023-12-18T06:47:30.143Z,3.85
2023-12-18T06:49:57.667Z,4.78
2023-12-18T06:52:25.973Z,4.32
2023-12-18T06:54:53.525Z,3.30
2023-12-18T06:57:21.374Z,3.53
2023-12-18T06:59:50.308Z,3.40
2023-12-18T07:02:17.824Z,3.22
2023-12-18T07:04:45.772Z,3.30
2023-12-18T07:07:13.284Z,3.67
2023-12-18T07:09:40.895Z,3.33
2023-12-18T07:12:09.488Z,3.58
2023-12-18T07:14:37.038Z,4.20
2023-12-18T07:17:06.224Z,2.55
2023-12-18T07:19:33.812Z,2.97
2023-12-18T07:22:01.411Z,2.65
2023-12-18T07:24:29.849Z,3.22
2023-12-18T07:26:57.376Z,3.00
2023-12-18T07:29:24.886Z,2.25
2023-12-18T07:31:52.429Z,2.47
2023-12-18T07:34:21.543Z,4.38
2023-12-18T07:36:49.158Z,2.92
2023-12-18T07:39:16.746Z,3.42
2023-12-18T07:41:44.361Z,2.47
2023-12-18T07:44:11.929Z,3.30
2023-12-18T07:46:39.435Z,3.45
2023-12-18T07:49:07.843Z,2.50
2023-12-18T07:51:39.019Z,3.97
2023-12-18T07:54:06.696Z,3.85
2023-12-18T07:56:34.188Z,3.15
2023-12-18T07:59:01.715Z,3.60
2023-12-18T08:01:29.600Z,10.32
2023-12-18T08:03:57.208Z,10.20
2023-12-18T08:06:24.817Z,10.20
2023-12-18T08:08:53.663Z,12.43
2023-12-18T08:11:21.153Z,10.48
2023-12-18T08:13:49.601Z,7.28
2023-12-18T08:16:17.198Z,5.03
2023-12-18T08:18:45.984Z,6.10
2023-12-18T08:21:14.697Z,6.97
2023-12-18T08:23:42.452Z,7.25
2023-12-18T08:26:12.846Z,9.35
2023-12-18T08:28:43.136Z,5.25
2023-12-18T08:31:10.803Z,7.68
2023-12-18T08:33:38.532Z,7.47
2023-12-18T08:36:06.698Z,5.47
2023-12-18T08:38:34.248Z,4.18
2023-12-18T08:41:01.770Z,6.95
2023-12-18T08:43:30.681Z,7.80
2023-12-18T08:45:58.242Z,4.95
2023-12-18T08:48:25.832Z,5.50
2023-12-18T08:50:53.427Z,5.38
2023-12-18T08:53:20.914Z,5.13
2023-12-18T08:55:48.408Z,5.25
2023-12-18T08:58:15.996Z,4.78
2023-12-18T09:00:44.924Z,5.03
2023-12-18T09:05:41.871Z,6.53
2023-12-18T09:08:12.660Z,7.13
2023-12-18T09:10:40.746Z,6.07
2023-12-18T09:13:08.255Z,6.63
2023-12-18T09:15:35.829Z,3.67
2023-12-18T09:18:05.168Z,4.82
2023-12-18T09:20:32.640Z,4.22
2023-12-18T09:23:00.148Z,5.10
2023-12-18T09:25:27.685Z,4.03
2023-12-18T09:27:55.225Z,4.18
2023-12-18T09:30:22.778Z,3.88
2023-12-18T09:32:50.471Z,4.88
2023-12-18T09:35:19.531Z,6.13
2023-12-18T09:37:47.122Z,4.05
2023-12-18T09:40:14.609Z,6.07
2023-12-18T09:42:42.509Z,4.18
2023-12-18T09:45:10.780Z,4.65
2023-12-18T09:47:38.730Z,4.57
2023-12-18T09:50:07.839Z,4.82
2023-12-18T09:52:36.764Z,4.30
2023-12-18T09:55:05.928Z,4.82
2023-12-18T09:57:33.520Z,3.75
2023-12-18T10:00:01.043Z,4.07
2023-12-18T10:02:28.543Z,3.65
2023-12-18T10:04:56.038Z,4.22
2023-12-18T10:07:23.525Z,5.35
2023-12-18T10:09:52.431Z,4.30
2023-12-18T10:14:47.300Z,3.63
2023-12-18T10:17:14.793Z,3.85
2023-12-18T10:19:43.785Z,3.60
2023-12-18T10:22:11.365Z,5.05
2023-12-18T10:24:42.059Z,3.65
2023-12-18T10:27:10.961Z,4.78
2023-12-18T10:32:06.362Z,3.65
2023-12-18T10:34:37.779Z,4.57
2023-12-18T10:37:05.511Z,4.60
2023-12-18T10:39:33.950Z,3.60
2023-12-18T10:42:01.497Z,3.75
2023-12-18T10:44:30.703Z,3.97
2023-12-18T10:46:58.219Z,3.33
2023-12-18T10:49:25.784Z,3.85
2023-12-18T10:51:53.343Z,3.88
2023-12-18T10:54:20.847Z,4.57
2023-12-18T10:56:48.347Z,3.65
2023-12-18T10:59:16.572Z,4.13
2023-12-18T11:01:45.478Z,3.47
2023-12-18T11:04:14.038Z,2.88
2023-12-18T11:06:41.680Z,3.13
2023-12-18T11:09:09.514Z,4.07
2023-12-18T11:11:37.014Z,3.53
2023-12-18T11:14:13.612Z,3.65
2023-12-18T11:16:59.185Z,4.65
2023-12-18T11:19:36.954Z,3.65
2023-12-18T11:22:05.789Z,3.70
2023-12-18T11:24:36.870Z,4.22
2023-12-18T11:27:04.597Z,3.55
2023-12-18T11:29:42.660Z,3.28
2023-12-18T11:32:13.928Z,3.33
2023-12-18T11:34:42.419Z,4.68
2023-12-18T11:37:10.156Z,2.60
2023-12-18T11:39:41.573Z,4.05
2023-12-18T11:42:29.621Z,4.15
2023-12-18T11:44:57.774Z,3.75
2023-12-18T11:47:26.668Z,4.03
2023-12-18T11:52:21.851Z,3.05
2023-12-18T11:54:49.662Z,2.97
2023-12-18T11:57:21.245Z,3.17
2023-12-18T11:59:48.810Z,3.58
2023-12-18T12:02:16.350Z,4.35
2023-12-18T12:04:45.284Z,2.78
2023-12-18T12:09:42.145Z,2.97
2023-12-18T12:12:12.540Z,2.90
2023-12-18T12:14:40.045Z,3.28
2023-12-18T12:17:07.722Z,3.20
2023-12-18T12:19:35.577Z,2.97
2023-12-18T12:22:04.986Z,2.53
2023-12-18T12:24:34.586Z,3.60
2023-12-18T12:27:02.120Z,4.05
2023-12-18T12:29:29.620Z,4.40
2023-12-18T12:32:03.817Z,3.08
2023-12-18T12:34:38.246Z,2.42
2023-12-18T12:37:07.164Z,3.30
2023-12-18T12:42:02.617Z,3.13
2023-12-18T12:44:30.153Z,2.22
2023-12-18T12:46:57.661Z,3.85
2023-12-18T12:49:25.247Z,4.03
2023-12-18T12:51:52.862Z,2.92
2023-12-18T12:54:22.608Z,3.40
2023-12-18T12:56:51.052Z,3.33
2023-12-18T12:59:19.061Z,3.42
2023-12-18T13:01:46.879Z,2.75
2023-12-18T13:04:14.587Z,3.38
2023-12-18T13:06:42.216Z,3.03
2023-12-18T13:09:10.393Z,3.15
2023-12-18T13:11:41.064Z,3.45
2023-12-18T13:14:14.594Z,3.75
2023-12-18T13:16:43.121Z,3.50
2023-12-18T13:19:10.794Z,3.60
2023-12-18T13:21:39.154Z,2.80
2023-12-18T13:24:07.258Z,3.20
2023-12-18T13:26:34.848Z,3.72
2023-12-18T13:29:03.713Z,3.22
2023-12-18T13:34:02.018Z,1.98
2023-12-18T13:36:29.605Z,2.67
2023-12-18T13:38:57.357Z,2.75
2023-12-18T13:41:27.682Z,3.90
2023-12-18T13:43:55.145Z,3.00
2023-12-18T13:46:23.965Z,3.33
2023-12-18T13:48:50.648Z,3.83
2023-12-18T13:51:18.228Z,3.17
2023-12-18T13:53:45.810Z,4.35
2023-12-18T13:56:13.585Z,3.50
2023-12-18T13:58:41.426Z,4.15
2023-12-18T14:01:09.021Z,3.53
2023-12-18T14:03:38.035Z,4.50
2023-12-18T14:06:06.164Z,3.97
2023-12-18T14:08:33.648Z,3.22
2023-12-18T14:11:02.159Z,3.33
2023-12-18T14:13:29.669Z,3.83
2023-12-18T14:15:58.311Z,3.90
2023-12-18T14:18:26.029Z,3.45
2023-12-18T14:20:54.998Z,3.00
2023-12-18T14:25:49.986Z,4.63
2023-12-18T14:28:17.623Z,3.33
2023-12-18T14:30:45.295Z,4.28
2023-12-18T14:33:13.188Z,3.80
2023-12-18T14:35:41.008Z,3.15
2023-12-18T14:38:09.839Z,4.07
2023-12-18T14:40:37.326Z,5.10
2023-12-18T14:43:05.232Z,3.75
2023-12-18T14:45:32.942Z,3.95
2023-12-18T14:48:00.532Z,3.67
2023-12-18T14:50:28.152Z,3.22
2023-12-18T14:52:57.239Z,3.60
2023-12-18T14:55:27.511Z,5.13
2023-12-18T14:57:56.161Z,3.92
2023-12-18T15:00:23.748Z,4.13
2023-12-18T15:02:51.311Z,5.10
2023-12-18T15:05:18.878Z,3.90
2023-12-18T15:07:46.408Z,4.93
2023-12-18T15:10:14.810Z,3.72
2023-12-18T15:12:43.879Z,4.63
2023-12-18T15:15:12.923Z,4.55
2023-12-18T15:17:40.516Z,4.78
2023-12-18T15:20:09.909Z,4.63
2023-12-18T15:22:37.572Z,3.83
2023-12-18T15:25:05.910Z,6.28
2023-12-18T15:27:34.513Z,4.72
2023-12-18T15:30:03.812Z,5.50
2023-12-18T15:32:31.414Z,4.40
2023-12-18T15:34:59.063Z,3.58
2023-12-18T15:37:26.695Z,5.20
2023-12-18T15:39:54.331Z,4.43
2023-12-18T15:42:22.158Z,4.57
2023-12-18T15:44:50.656Z,5.07
2023-12-18T15:47:19.761Z,5.47
2023-12-18T15:49:47.620Z,4.70
2023-12-18T15:52:18.265Z,4.57
2023-12-18T15:54:45.849Z,5.07
2023-12-18T15:57:13.384Z,5.25
2023-12-18T15:59:40.898Z,7.47
2023-12-18T16:02:08.381Z,6.45
2023-12-18T16:04:37.221Z,7.30
2023-12-18T16:07:05.786Z,14.93
2023-12-18T16:09:33.314Z,16.02
2023-12-18T16:12:00.937Z,14.82
2023-12-18T16:14:28.425Z,14.60
2023-12-18T16:16:55.964Z,20.20
2023-12-18T16:19:23.685Z,12.30
2023-12-18T16:21:52.730Z,10.25
2023-12-18T16:24:20.387Z,9.07
2023-12-18T16:26:48.188Z,8.75
2023-12-18T16:29:15.877Z,8.85
2023-12-18T16:31:43.448Z,8.98
2023-12-18T16:34:11.494Z,10.23
2023-12-18T16:36:39.108Z,9.77
2023-12-18T16:39:07.972Z,10.32
2023-12-18T16:41:37.561Z,9.88
2023-12-18T16:44:05.351Z,11.65
2023-12-18T16:46:40.326Z,9.35
2023-12-18T16:49:13.221Z,9.38
2023-12-18T16:51:41.059Z,8.80
2023-12-18T16:54:09.988Z,8.55
2023-12-18T16:59:05.759Z,10.85
2023-12-18T17:01:33.391Z,10.00
2023-12-18T17:04:01.309Z,11.25
2023-12-18T17:06:28.941Z,8.50
2023-12-18T17:08:58.596Z,11.05
2023-12-18T17:11:27.569Z,10.43
2023-12-18T17:13:55.031Z,8.57
2023-12-18T17:16:22.494Z,12.07
2023-12-18T17:18:50.029Z,11.85
2023-12-18T17:21:17.577Z,11.05
2023-12-18T17:23:45.766Z,11.23
2023-12-18T17:26:15.975Z,11.65
2023-12-18T17:28:45.009Z,11.30
2023-12-18T17:33:40.958Z,9.57
2023-12-18T17:36:09.128Z,11.48
2023-12-18T17:38:36.685Z,9.38
2023-12-18T17:41:04.339Z,9.95
2023-12-18T17:43:31.893Z,9.98
2023-12-18T17:46:00.971Z,10.77
2023-12-18T17:50:56.258Z,10.43
2023-12-18T17:53:23.802Z,12.23
2023-12-18T17:55:51.313Z,10.25
2023-12-18T17:58:18.763Z,13.20
2023-12-18T18:00:46.382Z,11.27
2023-12-18T18:03:15.424Z,11.10
2023-12-18T18:08:10.334Z,10.82
2023-12-18T18:10:37.913Z,12.70
2023-12-18T18:13:05.411Z,10.88
2023-12-18T18:15:32.978Z,9.20
2023-12-18T18:18:00.934Z,10.30
2023-12-18T18:20:30.699Z,12.02
2023-12-18T18:22:58.283Z,11.27
2023-12-18T18:25:25.940Z,9.63
2023-12-18T18:27:53.541Z,11.32
2023-12-18T18:30:21.220Z,11.68
2023-12-18T18:32:48.967Z,9.40
2023-12-18T18:35:16.796Z,9.45
2023-12-18T18:37:46.238Z,8.35
2023-12-18T18:40:14.752Z,9.98
2023-12-18T18:42:42.268Z,9.38
2023-12-18T18:45:10.903Z,7.82
2023-12-18T18:47:38.434Z,9.05
2023-12-18T18:50:06.326Z,8.57
2023-12-18T18:52:33.911Z,8.70
2023-12-18T18:55:03.345Z,8.75
2023-12-18T18:57:30.933Z,9.10
2023-12-18T18:59:58.439Z,9.07
2023-12-18T19:02:26.143Z,8.98
2023-12-18T19:04:53.776Z,9.50
2023-12-18T19:07:21.380Z,12.90
2023-12-18T19:09:48.942Z,9.95
2023-12-18T19:12:17.838Z,8.88
2023-12-18T19:14:45.400Z,9.63
2023-12-18T19:17:12.906Z,8.85
2023-12-18T19:19:41.070Z,9.05
2023-12-18T19:22:08.619Z,8.77
2023-12-18T19:24:36.203Z,9.20
2023-12-18T19:27:03.793Z,7.93
2023-12-18T19:29:32.627Z,10.52
2023-12-18T19:32:00.990Z,10.02
2023-12-18T19:34:28.689Z,8.93
2023-12-18T19:36:56.419Z,8.20
2023-12-18T19:39:24.040Z,8.85
2023-12-18T19:41:51.558Z,8.82
2023-12-18T19:44:20.434Z,10.10
2023-12-18T19:46:50.573Z,9.65
2023-12-18T19:49:21.714Z,8.88
2023-12-18T19:51:49.846Z,8.43
2023-12-18T19:54:17.464Z,9.02
2023-12-18T19:56:44.972Z,8.73
2023-12-18T19:59:12.502Z,8.75
2023-12-18T20:01:40.062Z,10.20
2023-12-18T20:04:10.950Z,8.30
2023-12-18T20:06:38.563Z,8.40
2023-12-18T20:09:06.146Z,8.15
2023-12-18T20:11:33.676Z,8.00
2023-12-18T20:14:01.227Z,7.22
2023-12-18T20:16:29.068Z,7.78
2023-12-18T20:18:56.686Z,7.45
2023-12-18T20:21:25.764Z,7.15
2023-12-18T20:23:53.281Z,7.63
2023-12-18T20:26:20.773Z,8.10
2023-12-18T20:28:48.285Z,9.40
2023-12-18T20:31:15.847Z,8.20
2023-12-18T20:33:43.640Z,8.18
2023-12-18T20:36:11.283Z,8.45
2023-12-18T20:38:40.196Z,8.75
2023-12-18T20:41:07.719Z,8.60
2023-12-18T20:43:35.226Z,8.45
2023-12-18T20:46:02.797Z,9.80
2023-12-18T20:48:30.487Z,10.00
2023-12-18T20:50:59.986Z,8.55
2023-12-18T20:53:27.477Z,7.90
2023-12-18T20:55:56.961Z,8.27
2023-12-18T20:58:25.201Z,9.38
2023-12-18T21:00:52.792Z,7.68
2023-12-18T21:03:20.448Z,7.47
2023-12-18T21:05:48.000Z,7.72
2023-12-18T21:08:15.510Z,8.38
2023-12-18T21:10:43.140Z,8.82
2023-12-18T21:13:16.515Z,8.35
2023-12-18T21:15:46.633Z,8.93
2023-12-18T21:18:14.642Z,8.07
2023-12-18T21:20:42.144Z,7.93
2023-12-18T21:23:09.723Z,7.72
2023-12-18T21:25:37.361Z,8.80
2023-12-18T21:28:05.449Z,8.05
2023-12-18T21:30:34.372Z,7.90
2023-12-18T21:35:31.029Z,7.30
2023-12-18T21:37:58.542Z,8.15
2023-12-18T21:40:26.016Z,9.13
2023-12-18T21:42:53.553Z,9.35
2023-12-18T21:45:21.210Z,9.13
2023-12-18T21:47:51.427Z,7.43
2023-12-18T21:50:19.074Z,7.18
2023-12-18T21:52:46.618Z,7.13
2023-12-18T21:55:14.171Z,6.65
2023-12-18T21:57:41.704Z,6.32
2023-12-18T22:00:10.046Z,6.13
2023-12-18T22:02:37.576Z,6.10
2023-12-18T22:05:07.313Z,6.80
2023-12-18T22:07:34.857Z,7.05
2023-12-18T22:10:04.410Z,5.57
2023-12-18T22:12:32.052Z,5.88
2023-12-18T22:15:01.913Z,5.65
2023-12-18T22:17:30.974Z,5.90
2023-12-18T22:19:58.709Z,5.22
2023-12-18T22:22:27.601Z,5.93
2023-12-18T22:24:55.149Z,6.65
2023-12-18T22:27:22.803Z,5.55
2023-12-18T22:29:50.319Z,5.88
2023-12-18T22:32:17.826Z,5.50
2023-12-18T22:34:45.423Z,5.97
2023-12-18T22:37:13.510Z,5.05
2023-12-18T22:39:43.008Z,4.80
2023-12-18T22:42:10.571Z,4.40
2023-12-18T22:44:38.114Z,5.05
2023-12-18T22:47:05.724Z,4.45
2023-12-18T22:49:33.729Z,5.03
2023-12-18T22:52:01.439Z,4.57
2023-12-18T22:54:29.071Z,4.95
2023-12-18T22:56:57.928Z,5.15
2023-12-18T22:59:25.410Z,4.22
2023-12-18T23:01:52.968Z,4.00
2023-12-18T23:04:20.608Z,4.78
2023-12-18T23:06:49.869Z,4.40
2023-12-18T23:11:44.766Z,4.72
2023-12-18T23:14:14.103Z,4.13
2023-12-18T23:16:41.866Z,4.40
2023-12-18T23:19:09.418Z,5.35
2023-12-18T23:21:40.223Z,4.68
2023-12-18T23:24:08.450Z,5.35
2023-12-18T23:26:36.039Z,4.55
2023-12-18T23:29:03.608Z,4.57
2023-12-18T23:31:32.566Z,4.70
2023-12-18T23:34:00.508Z,4.07
2023-12-18T23:36:28.196Z,4.13
2023-12-18T23:38:55.699Z,4.28
2023-12-18T23:41:23.209Z,3.40
2023-12-18T23:43:51.732Z,4.15
2023-12-18T23:46:19.454Z,4.30
2023-12-18T23:48:48.387Z,3.67
2023-12-18T23:51:15.898Z,4.50
2023-12-18T23:53:43.441Z,3.85
2023-12-18T23:56:11.097Z,3.75
2023-12-18T23:58:38.569Z,3.97
